• Join FlightAware (Why Join?)
  • Login
  • US Flag 
Rudolph Flight #1: Arrived! 
12:00PM EST


 

Airport Tracker/Info


-or-


 

Live Flight TrackerFlight Track Log ✈ N373LD ✈ 04-Apr-2014 ✈ KSSF - KGCK

Flight Track Log - Related Links

Times and Time Zones

All times are in EDT time to prevent confusion due to time zone crossing. See the N373LD flight status page for this flight to view local times or setup timezone preferences in your user account.

Time Position Orientation Groundspeed Altitude Reporting Facility
EDT Latitude Longitude Course Direction KTS MPH feet Rate Location/Type
12:55PM 29.3456 -98.4781 47° Northeast 84 97 1,100  Level Houston Center
12:56PM 29.3586 -98.4619 47° Northeast 108 124 2,200 1,020 Climbing Houston Center
12:57PM 29.3228 -98.4375 149° Southeast 171 197 3,100 900 Climbing Houston Center
12:57PM 29.3175 -98.4333 145° Southeast 156 180 3,300 1,320 Climbing Houston Center
12:58PM 29.2822 -98.4306 176° South 173 199 4,500 1,500 Climbing Houston Center
12:58PM 29.2753 -98.4353 211° Southwest 160 184 4,900 1,560 Climbing Houston Center
12:59PM 29.2600 -98.4619 237° Southwest 131 151 6,100 1,380 Climbing Houston Center
12:59PM 29.2658 -98.4689 314° West 136 157 6,400 960 Climbing Houston Center
12:59PM 29.2925 -98.4725 353° North 139 160 7,000 960 Climbing Houston Center
01:00PM 29.3103 -98.4717 North 149 171 7,400 1,080 Climbing Houston Center
01:00PM 29.3386 -98.4717 360° North 167 192 8,100 1,020 Climbing Houston Center
01:01PM 29.3561 -98.4706 North 161 185 8,500 1,080 Climbing Houston Center
01:01PM 29.3869 -98.4706 360° North 174 200 9,200 1,140 Climbing Houston Center
01:02PM 29.4058 -98.4692 North 173 199 9,700 1,200 Climbing Houston Center
01:03PM 29.4392 -98.4692 360° North 181 208 10,500 1,020 Climbing Houston Center
01:03PM 29.4606 -98.4667 North 179 206 10,800 900 Climbing Houston Center
01:04PM 29.4975 -98.4644 North 196 226 11,500 1,140 Climbing Houston Center
01:04PM 29.5153 -98.4642 North 191 220 12,000 1,140 Climbing Houston Center
01:05PM 29.5500 -98.4631 North 189 217 12,700 720 Climbing Houston Center
01:05PM 29.5653 -98.4631 360° North 186 214 12,800 180 Climbing Houston Center
01:06PM 29.6339 -98.4606 North 208 239 13,000 720 Climbing Houston Center
01:07PM 29.6925 -98.4531 North 209 241 14,400 1,200 Climbing Houston Center
01:08PM 29.7469 -98.4461 North 187 215 15,600 1,080 Climbing Houston Center
01:09PM 29.7986 -98.4386 North 187 215 16,700 1,020 Climbing Houston Center
01:10PM 29.8550 -98.4303 North 187 215 17,800 840 Climbing Houston Center
01:11PM 29.9092 -98.4217 North 191 220 18,500 780 Climbing Houston Center
01:12PM 29.9633 -98.4144 North 192 221 19,500 900 Climbing Houston Center
01:13PM 30.0236 -98.4053 North 202 232 20,400 840 Climbing Houston Center
01:14PM 30.0808 -98.3969 North 202 232 21,300 840 Climbing Houston Center
01:15PM 30.1394 -98.4022 356° North 197 227 22,200 720 Climbing Houston Center
01:16PM 30.1942 -98.4147 349° North 198 228 22,900 720 Climbing Houston Center
01:17PM 30.2506 -98.4308 346° North 196 226 23,800 780 Climbing Houston Center
01:18PM 30.3039 -98.4458 346° North 195 224 24,600 720 Climbing Houston Center
01:20PM 30.3508 -98.4581 347° North 195 224 25,300 660 Climbing Houston Center
01:21PM 30.4169 -98.4764 347° North 201 231 26,000 300 Climbing Houston Center
01:22PM 30.4786 -98.4942 346° North 221 254 26,000  Level Houston Center
01:23PM 30.5500 -98.5119 348° North 237 273 26,000  Level Houston Center
01:24PM 30.6158 -98.5322 345° North 241 277 26,000  Level Houston Center
01:25PM 30.6819 -98.5492 348° North 241 277 26,000  Level Houston Center
01:26PM 30.7478 -98.5678 346° North 242 278 26,000  Level Houston Center
01:27PM 30.8144 -98.5867 346° North 243 280 26,000  Level Houston Center
01:28PM 30.8942 -98.6092 346° North 244 281 26,000  Level Houston Center
01:29PM 30.9614 -98.6281 346° North 244 281 26,000  Level Houston Center
01:30PM 31.0283 -98.6450 348° North 245 282 26,000  Level Houston Center
01:31PM 31.0906 -98.6625 346° North 246 283 26,000  Level Houston Center
01:32PM 31.1486 -98.6794 346° North 247 284 26,000  Level Fort Worth Center
01:33PM 31.2142 -98.6975 347° North 247 284 26,000  Level Fort Worth Center
01:34PM 31.2808 -98.7169 346° North 246 283 26,000  Level Fort Worth Center
01:35PM 31.3467 -98.7344 347° North 245 282 26,000  Level Fort Worth Center
01:36PM 31.4214 -98.7558 346° North 245 282 26,000  Level Fort Worth Center
01:37PM 31.4878 -98.7747 346° North 245 282 26,000  Level Fort Worth Center
01:38PM 31.5550 -98.7928 347° North 245 282 26,000  Level Fort Worth Center
01:39PM 31.6022 -98.8367 322° Northwest 217 250 26,000  Level Fort Worth Center
01:40PM 31.6431 -98.8864 314° West 213 245 26,000  Level Fort Worth Center
01:41PM 31.6950 -98.9433 317° Northwest 213 245 26,000  Level Fort Worth Center
01:42PM 31.7394 -98.9900 318° Northwest 215 247 26,000  Level Fort Worth Center
01:43PM 31.7844 -99.0367 319° Northwest 215 247 26,000  Level Fort Worth Center
01:44PM 31.8289 -99.0847 317° Northwest 214 246 26,000  Level Fort Worth Center
01:45PM 31.8722 -99.1317 317° Northwest 215 247 26,000  Level Fort Worth Center
01:46PM 31.9167 -99.1778 319° Northwest 214 246 26,000  Level Fort Worth Center
01:47PM 31.9689 -99.2353 317° Northwest 214 246 26,000  Level Fort Worth Center
01:48PM 32.0136 -99.2819 319° Northwest 214 246 26,000  Level Fort Worth Center
01:49PM 32.0583 -99.3281 319° Northwest 214 246 26,000  Level Fort Worth Center
01:50PM 32.1028 -99.3744 319° Northwest 214 246 26,000  Level Fort Worth Center
01:51PM 32.1544 -99.4103 330° Northwest 227 261 26,000  Level Fort Worth Center
01:52PM 32.2239 -99.4208 353° North 250 288 26,000  Level Fort Worth Center
01:53PM 32.3042 -99.4383 350° North 249 287 26,000  Level Fort Worth Center
01:54PM 32.3719 -99.4531 350° North 248 285 26,000  Level Fort Worth Center
01:55PM 32.4389 -99.4675 350° North 248 285 26,000  Level Fort Worth Center
01:56PM 32.5061 -99.4819 350° North 247 284 26,000  Level Fort Worth Center
01:58PM 32.5736 -99.4967 350° North 247 284 26,000  Level Fort Worth Center
01:59PM 32.6536 -99.5119 351° North 246 283 26,000  Level Fort Worth Center
02:00PM 32.7217 -99.5281 349° North 247 284 26,000  Level Fort Worth Center
02:01PM 32.7897 -99.5419 350° North 247 284 26,000  Level Fort Worth Center
02:02PM 32.8583 -99.5569 350° North 247 284 26,000  Level Fort Worth Center
02:03PM 32.9275 -99.5717 350° North 252 290 26,000  Level Fort Worth Center
02:04PM 33.0103 -99.5894 350° North 252 290 26,000  Level Fort Worth Center
02:05PM 33.0789 -99.6053 349° North 252 290 26,000  Level Fort Worth Center
02:06PM 33.1481 -99.6200 350° North 252 290 26,000  Level Fort Worth Center
02:07PM 33.2161 -99.6344 350° North 251 289 26,000  Level Fort Worth Center
02:08PM 33.2844 -99.6503 349° North 251 289 26,000  Level Fort Worth Center
02:09PM 33.3531 -99.6639 351° North 250 288 26,000  Level Fort Worth Center
02:10PM 33.4350 -99.6819 350° North 250 288 26,000  Level Fort Worth Center
02:11PM 33.5039 -99.6975 349° North 250 288 26,000  Level Fort Worth Center
02:12PM 33.5722 -99.7122 350° North 250 288 26,000  Level Fort Worth Center
02:13PM 33.6403 -99.7269 350° North 250 288 26,000  Level Fort Worth Center
02:14PM 33.7089 -99.7417 350° North 250 288 26,000  Level Fort Worth Center
02:15PM 33.7758 -99.7572 349° North 249 287 26,000  Level Fort Worth Center
02:16PM 33.8569 -99.7756 349° North 248 285 26,000  Level Fort Worth Center
02:17PM 33.9247 -99.7903 350° North 247 284 26,000  Level Fort Worth Center
02:18PM 33.9919 -99.8053 350° North 247 284 26,000  Level Fort Worth Center
02:19PM 34.0594 -99.8192 350° North 246 283 26,000  Level Fort Worth Center
02:20PM 34.1269 -99.8336 350° North 247 284 26,000  Level Fort Worth Center
02:21PM 34.1950 -99.8497 349° North 247 284 26,000  Level Fort Worth Center
02:22PM 34.2772 -99.8678 350° North 247 284 26,000  Level Fort Worth Center
02:23PM 34.3489 -99.8842 349° North 248 285 26,000  Level Fort Worth Center
02:24PM 34.4164 -99.8994 349° North 247 284 26,000  Level Fort Worth Center
02:25PM 34.4850 -99.9139 350° North 248 285 26,000  Level Fort Worth Center
02:27PM 34.5533 -99.9303 349° North 249 287 26,000  Level Fort Worth Center
02:28PM 34.6275 -99.9461 350° North 248 285 26,000  Level Fort Worth Center
02:29PM 34.6950 -99.9636 348° North 248 285 26,000  Level Fort Worth Center
02:30PM 34.7631 -99.9775 350° North 248 285 26,000  Level Fort Worth Center
02:31PM 34.8303 -99.9933 349° North 248 285 26,000  Level Fort Worth Center
02:32PM 34.8975 -100.0089 349° North 247 284 26,000  Level Fort Worth Center
02:33PM 34.9792 -100.0275 349° North 247 284 26,000  Level Fort Worth Center
02:34PM 35.0469 -100.0422 350° North 247 284 26,000  Level Fort Worth Center
02:35PM 35.1153 -100.0592 349° North 247 284 26,000  Level Fort Worth Center
02:36PM 35.1836 -100.0739 350° North 247 284 26,000  Level Fort Worth Center
02:37PM 35.2522 -100.0903 349° North 249 287 26,000  Level Fort Worth Center
02:39PM 35.4000 -100.1236 350° North 247 284 26,000  Level Fort Worth Center
02:40PM 35.4531 -100.1356 350° North 245 282 26,000  Level Albuquerque Center
02:41PM 35.5211 -100.1506 350° North 245 282 26,000  Level Albuquerque Center
02:42PM 35.5875 -100.1658 349° North 245 282 26,000  Level Albuquerque Center
02:43PM 35.6533 -100.1819 349° North 245 282 26,000  Level Albuquerque Center
02:44PM 35.7331 -100.1986 350° North 243 280 26,000  Level Albuquerque Center
02:45PM 35.7981 -100.2147 349° North 243 280 26,000  Level Albuquerque Center
02:46PM 35.8639 -100.2294 350° North 240 276 26,000  Level Albuquerque Center
02:47PM 35.9314 -100.2458 349° North 240 276 26,000  Level Albuquerque Center
02:48PM 35.9967 -100.2625 348° North 242 278 26,000  Level Kansas City Center
02:49PM 36.0631 -100.2778 349° North 242 278 26,000  Level Kansas City Center
02:50PM 36.1308 -100.2933 349° North 244 281 26,000  Level Kansas City Center
02:51PM 36.2125 -100.3128 349° North 244 281 26,000  Level Kansas City Center
02:52PM 36.2797 -100.3278 350° North 244 281 26,000  Level Kansas City Center
02:53PM 36.3464 -100.3431 350° North 244 281 26,000  Level Kansas City Center
02:54PM 36.4125 -100.3594 349° North 243 280 26,000  Level Kansas City Center
02:55PM 36.4797 -100.3756 349° North 243 280 26,000  Level Kansas City Center
02:56PM 36.5475 -100.3908 350° North 244 281 26,000 -180 Level Kansas City Center
02:57PM 36.6286 -100.4097 349° North 244 281 25,700 -480 Descending Kansas City Center
02:58PM 36.6958 -100.4256 349° North 251 289 25,000 -780 Descending Kansas City Center
02:59PM 36.7731 -100.4442 349° North 255 293 24,200 -720 Descending Kansas City Center
03:01PM 36.8369 -100.4597 349° North 248 285 23,600 -540 Descending Kansas City Center
03:02PM 36.9008 -100.4753 349° North 247 284 23,100 -300 Descending Kansas City Center
03:03PM 36.9747 -100.4925 349° North 243 280 23,000 -60 Descending Kansas City Center
03:04PM 37.0383 -100.5078 349° North 243 280 23,000  Level Kansas City Center
03:05PM 37.1131 -100.5256 349° North 243 280 23,000  Level Kansas City Center
03:06PM 37.1778 -100.5406 350° North 243 280 23,000 -540 Level Kansas City Center
03:07PM 37.2550 -100.5600 349° North 250 288 22,000 -1,320 Descending Kansas City Center
03:08PM 37.3167 -100.5750 349° North 241 277 20,300 -1,800 Descending Kansas City Center
03:09PM 37.3872 -100.5922 349° North 237 273 18,400 -1,620 Descending Kansas City Center
03:10PM 37.4453 -100.6067 349° North 227 261 17,000 -1,620 Descending Kansas City Center
03:11PM 37.5100 -100.6217 350° North 216 249 15,100 -1,680 Descending Kansas City Center
03:12PM 37.5667 -100.6358 349° North 216 249 13,600 -1,620 Descending Kansas City Center
03:13PM 37.6267 -100.6497 350° North 201 231 11,800 -1,500 Descending Kansas City Center
03:14PM 37.6783 -100.6636 348° North 198 228 10,500 -1,440 Descending Kansas City Center
03:15PM 37.7364 -100.6775 349° North 197 227 8,900 -1,440 Descending Kansas City Center
03:16PM 37.7858 -100.6897 349° North 194 223 7,500 -1,440 Descending Kansas City Center
03:17PM 37.8394 -100.7022 350° North 183 211 5,900 -1,680 Descending Kansas City Center
03:18PM 37.8789 -100.7244 336° Northwest 170 196 4,100 -1,440 Descending Kansas City Center
03:19PM 37.9206 -100.7233 North 142 163 3,000 -1,140 Descending Kansas City Center